sensor_id;sensor_type;location;lat;lon;timestamp;P1;durP1;ratioP1;P2;durP2;ratioP2
24216;SDS011;12356;49.386;8.688;2023-02-26T00:01:12;2.90;;;1.58;;
24216;SDS011;12356;49.386;8.688;2023-02-26T00:03:43;3.55;;;1.40;;
24216;SDS011;12356;49.386;8.688;2023-02-26T00:06:18;4.38;;;1.70;;
24216;SDS011;12356;49.386;8.688;2023-02-26T00:08:49;4.45;;;1.80;;
24216;SDS011;12356;49.386;8.688;2023-02-26T00:11:20;5.93;;;1.70;;
24216;SDS011;12356;49.386;8.688;2023-02-26T00:13:51;5.40;;;1.98;;
24216;SDS011;12356;49.386;8.688;2023-02-26T00:16:24;3.80;;;1.65;;
24216;SDS011;12356;49.386;8.688;2023-02-26T00:18:57;4.80;;;1.85;;
24216;SDS011;12356;49.386;8.688;2023-02-26T00:21:31;5.13;;;1.90;;
24216;SDS011;12356;49.386;8.688;2023-02-26T00:24:02;4.28;;;1.60;;
24216;SDS011;12356;49.386;8.688;2023-02-26T00:26:35;4.82;;;1.70;;
24216;SDS011;12356;49.386;8.688;2023-02-26T00:29:06;6.03;;;1.80;;
24216;SDS011;12356;49.386;8.688;2023-02-26T00:31:37;2.72;;;1.52;;
24216;SDS011;12356;49.386;8.688;2023-02-26T00:34:09;5.57;;;1.60;;
24216;SDS011;12356;49.386;8.688;2023-02-26T00:36:54;6.13;;;1.90;;
24216;SDS011;12356;49.386;8.688;2023-02-26T00:42:17;4.20;;;1.73;;
24216;SDS011;12356;49.386;8.688;2023-02-26T00:44:48;4.60;;;1.73;;
24216;SDS011;12356;49.386;8.688;2023-02-26T00:50:18;2.85;;;1.73;;
24216;SDS011;12356;49.386;8.688;2023-02-26T00:53:00;7.40;;;2.00;;
24216;SDS011;12356;49.386;8.688;2023-02-26T00:58:13;3.90;;;2.05;;
24216;SDS011;12356;49.386;8.688;2023-02-26T01:00:44;5.85;;;1.90;;
24216;SDS011;12356;49.386;8.688;2023-02-26T01:03:14;3.95;;;1.80;;
24216;SDS011;12356;49.386;8.688;2023-02-26T01:05:45;4.05;;;1.73;;
24216;SDS011;12356;49.386;8.688;2023-02-26T01:08:18;3.85;;;1.83;;
24216;SDS011;12356;49.386;8.688;2023-02-26T01:11:02;5.63;;;2.00;;
24216;SDS011;12356;49.386;8.688;2023-02-26T01:13:33;4.10;;;1.88;;
24216;SDS011;12356;49.386;8.688;2023-02-26T01:16:05;4.85;;;2.10;;
24216;SDS011;12356;49.386;8.688;2023-02-26T01:18:42;6.45;;;2.00;;
24216;SDS011;12356;49.386;8.688;2023-02-26T01:21:18;3.55;;;1.70;;
24216;SDS011;12356;49.386;8.688;2023-02-26T01:23:56;4.82;;;2.03;;
24216;SDS011;12356;49.386;8.688;2023-02-26T01:26:31;3.83;;;2.05;;
24216;SDS011;12356;49.386;8.688;2023-02-26T01:29:02;6.70;;;2.38;;
24216;SDS011;12356;49.386;8.688;2023-02-26T01:34:25;6.88;;;2.20;;
24216;SDS011;12356;49.386;8.688;2023-02-26T01:40:14;5.70;;;2.00;;
24216;SDS011;12356;49.386;8.688;2023-02-26T01:42:50;4.78;;;2.10;;
24216;SDS011;12356;49.386;8.688;2023-02-26T01:45:25;6.20;;;2.45;;
24216;SDS011;12356;49.386;8.688;2023-02-26T01:48:04;5.68;;;2.22;;
24216;SDS011;12356;49.386;8.688;2023-02-26T01:50:35;4.30;;;2.05;;
24216;SDS011;12356;49.386;8.688;2023-02-26T01:55:47;5.35;;;1.98;;
24216;SDS011;12356;49.386;8.688;2023-02-26T01:58:21;7.07;;;2.15;;
24216;SDS011;12356;49.386;8.688;2023-02-26T02:00:53;6.45;;;2.40;;
24216;SDS011;12356;49.386;8.688;2023-02-26T02:03:24;6.53;;;2.35;;
24216;SDS011;12356;49.386;8.688;2023-02-26T02:05:57;6.13;;;2.03;;
24216;SDS011;12356;49.386;8.688;2023-02-26T02:08:33;4.32;;;2.22;;
24216;SDS011;12356;49.386;8.688;2023-02-26T02:11:06;4.68;;;2.25;;
24216;SDS011;12356;49.386;8.688;2023-02-26T02:16:49;3.97;;;2.20;;
24216;SDS011;12356;49.386;8.688;2023-02-26T02:19:42;7.03;;;2.60;;
24216;SDS011;12356;49.386;8.688;2023-02-26T02:36:33;5.20;;;2.67;;
24216;SDS011;12356;49.386;8.688;2023-02-26T02:42:18;6.28;;;3.10;;
24216;SDS011;12356;49.386;8.688;2023-02-26T02:44:55;5.93;;;3.20;;
24216;SDS011;12356;49.386;8.688;2023-02-26T02:47:29;3.70;;;2.45;;
24216;SDS011;12356;49.386;8.688;2023-02-26T02:50:06;6.50;;;2.70;;
24216;SDS011;12356;49.386;8.688;2023-02-26T02:52:51;4.60;;;2.63;;
24216;SDS011;12356;49.386;8.688;2023-02-26T02:55:28;6.45;;;2.90;;
24216;SDS011;12356;49.386;8.688;2023-02-26T02:58:04;6.03;;;2.83;;
24216;SDS011;12356;49.386;8.688;2023-02-26T03:00:41;6.18;;;3.00;;
24216;SDS011;12356;49.386;8.688;2023-02-26T03:03:18;5.93;;;2.63;;
24216;SDS011;12356;49.386;8.688;2023-02-26T03:05:57;6.20;;;2.80;;
24216;SDS011;12356;49.386;8.688;2023-02-26T03:08:29;5.00;;;2.78;;
24216;SDS011;12356;49.386;8.688;2023-02-26T03:11:03;5.60;;;2.65;;
24216;SDS011;12356;49.386;8.688;2023-02-26T03:13:34;4.35;;;2.75;;
24216;SDS011;12356;49.386;8.688;2023-02-26T03:16:15;6.47;;;2.92;;
24216;SDS011;12356;49.386;8.688;2023-02-26T03:19:17;8.07;;;2.70;;
24216;SDS011;12356;49.386;8.688;2023-02-26T03:21:57;5.97;;;2.88;;
24216;SDS011;12356;49.386;8.688;2023-02-26T03:27:30;5.15;;;3.10;;
24216;SDS011;12356;49.386;8.688;2023-02-26T03:38:23;8.07;;;2.50;;
24216;SDS011;12356;49.386;8.688;2023-02-26T03:41:01;8.80;;;2.97;;
24216;SDS011;12356;49.386;8.688;2023-02-26T03:43:43;5.13;;;2.72;;
24216;SDS011;12356;49.386;8.688;2023-02-26T03:46:20;6.43;;;2.80;;
24216;SDS011;12356;49.386;8.688;2023-02-26T03:49:03;9.20;;;2.80;;
24216;SDS011;12356;49.386;8.688;2023-02-26T03:51:47;5.78;;;2.75;;
24216;SDS011;12356;49.386;8.688;2023-02-26T03:54:22;6.15;;;2.72;;
24216;SDS011;12356;49.386;8.688;2023-02-26T03:56:56;5.97;;;2.70;;
24216;SDS011;12356;49.386;8.688;2023-02-26T03:59:27;8.25;;;2.65;;
24216;SDS011;12356;49.386;8.688;2023-02-26T04:01:59;5.50;;;2.60;;
24216;SDS011;12356;49.386;8.688;2023-02-26T04:04:41;7.57;;;2.55;;
24216;SDS011;12356;49.386;8.688;2023-02-26T04:07:17;5.40;;;2.88;;
24216;SDS011;12356;49.386;8.688;2023-02-26T04:09:49;5.68;;;2.83;;
24216;SDS011;12356;49.386;8.688;2023-02-26T04:12:21;6.15;;;2.58;;
24216;SDS011;12356;49.386;8.688;2023-02-26T04:14:56;7.00;;;2.72;;
24216;SDS011;12356;49.386;8.688;2023-02-26T04:17:28;5.53;;;2.90;;
24216;SDS011;12356;49.386;8.688;2023-02-26T04:19:58;7.35;;;3.00;;
24216;SDS011;12356;49.386;8.688;2023-02-26T04:22:29;5.18;;;2.47;;
24216;SDS011;12356;49.386;8.688;2023-02-26T04:24:59;7.80;;;2.90;;
24216;SDS011;12356;49.386;8.688;2023-02-26T04:27:30;7.95;;;2.80;;
24216;SDS011;12356;49.386;8.688;2023-02-26T04:30:00;3.88;;;2.42;;
24216;SDS011;12356;49.386;8.688;2023-02-26T04:32:31;7.97;;;3.17;;
24216;SDS011;12356;49.386;8.688;2023-02-26T04:35:01;4.43;;;2.20;;
24216;SDS011;12356;49.386;8.688;2023-02-26T04:37:32;6.07;;;2.70;;
24216;SDS011;12356;49.386;8.688;2023-02-26T04:40:03;6.38;;;2.70;;
24216;SDS011;12356;49.386;8.688;2023-02-26T04:42:34;4.72;;;2.50;;
24216;SDS011;12356;49.386;8.688;2023-02-26T04:45:04;4.93;;;2.40;;
24216;SDS011;12356;49.386;8.688;2023-02-26T04:47:35;6.20;;;2.63;;
24216;SDS011;12356;49.386;8.688;2023-02-26T04:50:06;5.53;;;2.55;;
24216;SDS011;12356;49.386;8.688;2023-02-26T04:52:37;5.68;;;2.60;;
24216;SDS011;12356;49.386;8.688;2023-02-26T04:55:08;6.70;;;2.50;;
24216;SDS011;12356;49.386;8.688;2023-02-26T04:57:39;6.55;;;2.97;;
24216;SDS011;12356;49.386;8.688;2023-02-26T05:00:09;7.88;;;2.53;;
24216;SDS011;12356;49.386;8.688;2023-02-26T05:02:40;5.57;;;2.40;;
24216;SDS011;12356;49.386;8.688;2023-02-26T05:05:11;7.47;;;2.67;;
24216;SDS011;12356;49.386;8.688;2023-02-26T05:07:42;5.65;;;2.65;;
24216;SDS011;12356;49.386;8.688;2023-02-26T05:10:12;5.03;;;2.78;;
24216;SDS011;12356;49.386;8.688;2023-02-26T05:12:43;8.68;;;2.80;;
24216;SDS011;12356;49.386;8.688;2023-02-26T05:15:13;5.25;;;2.60;;
24216;SDS011;12356;49.386;8.688;2023-02-26T05:17:44;5.10;;;2.53;;
24216;SDS011;12356;49.386;8.688;2023-02-26T05:20:15;6.03;;;2.50;;
24216;SDS011;12356;49.386;8.688;2023-02-26T05:22:46;5.65;;;2.65;;
24216;SDS011;12356;49.386;8.688;2023-02-26T05:25:17;5.35;;;2.67;;
24216;SDS011;12356;49.386;8.688;2023-02-26T05:27:48;10.95;;;2.80;;
24216;SDS011;12356;49.386;8.688;2023-02-26T05:30:18;9.27;;;3.00;;
24216;SDS011;12356;49.386;8.688;2023-02-26T05:32:49;5.55;;;2.97;;
24216;SDS011;12356;49.386;8.688;2023-02-26T05:35:20;5.78;;;2.20;;
24216;SDS011;12356;49.386;8.688;2023-02-26T05:37:50;4.60;;;2.53;;
24216;SDS011;12356;49.386;8.688;2023-02-26T05:40:21;4.53;;;2.33;;
24216;SDS011;12356;49.386;8.688;2023-02-26T05:42:52;8.15;;;2.65;;
24216;SDS011;12356;49.386;8.688;2023-02-26T05:45:22;6.20;;;3.00;;
24216;SDS011;12356;49.386;8.688;2023-02-26T05:47:53;5.60;;;2.78;;
24216;SDS011;12356;49.386;8.688;2023-02-26T05:50:23;9.90;;;2.90;;
24216;SDS011;12356;49.386;8.688;2023-02-26T05:52:54;8.23;;;3.00;;
24216;SDS011;12356;49.386;8.688;2023-02-26T05:55:24;6.35;;;3.15;;
24216;SDS011;12356;49.386;8.688;2023-02-26T05:57:55;7.50;;;3.13;;
24216;SDS011;12356;49.386;8.688;2023-02-26T06:00:26;8.52;;;3.00;;
24216;SDS011;12356;49.386;8.688;2023-02-26T06:02:56;7.90;;;3.25;;
24216;SDS011;12356;49.386;8.688;2023-02-26T06:05:27;6.13;;;2.95;;
24216;SDS011;12356;49.386;8.688;2023-02-26T06:07:57;5.88;;;2.78;;
24216;SDS011;12356;49.386;8.688;2023-02-26T06:10:28;6.82;;;2.80;;
24216;SDS011;12356;49.386;8.688;2023-02-26T06:12:58;6.80;;;2.92;;
24216;SDS011;12356;49.386;8.688;2023-02-26T06:15:29;8.65;;;3.05;;
24216;SDS011;12356;49.386;8.688;2023-02-26T06:18:00;7.45;;;3.25;;
24216;SDS011;12356;49.386;8.688;2023-02-26T06:20:30;5.72;;;2.83;;
24216;SDS011;12356;49.386;8.688;2023-02-26T06:23:01;7.38;;;3.00;;
24216;SDS011;12356;49.386;8.688;2023-02-26T06:25:31;7.63;;;2.95;;
24216;SDS011;12356;49.386;8.688;2023-02-26T06:28:02;6.13;;;2.85;;
24216;SDS011;12356;49.386;8.688;2023-02-26T06:30:33;6.43;;;2.65;;
24216;SDS011;12356;49.386;8.688;2023-02-26T06:33:03;8.32;;;2.60;;
24216;SDS011;12356;49.386;8.688;2023-02-26T06:35:34;6.38;;;2.70;;
24216;SDS011;12356;49.386;8.688;2023-02-26T06:38:05;7.55;;;3.40;;
24216;SDS011;12356;49.386;8.688;2023-02-26T06:40:35;9.80;;;2.90;;
24216;SDS011;12356;49.386;8.688;2023-02-26T06:43:06;5.50;;;2.47;;
24216;SDS011;12356;49.386;8.688;2023-02-26T06:45:37;5.82;;;2.38;;
24216;SDS011;12356;49.386;8.688;2023-02-26T06:48:07;7.97;;;2.40;;
24216;SDS011;12356;49.386;8.688;2023-02-26T06:50:38;4.97;;;2.10;;
24216;SDS011;12356;49.386;8.688;2023-02-26T06:53:09;6.07;;;1.95;;
24216;SDS011;12356;49.386;8.688;2023-02-26T06:55:46;5.68;;;2.03;;
24216;SDS011;12356;49.386;8.688;2023-02-26T06:58:19;5.78;;;2.30;;
24216;SDS011;12356;49.386;8.688;2023-02-26T07:00:50;4.50;;;1.90;;
24216;SDS011;12356;49.386;8.688;2023-02-26T07:03:20;4.53;;;2.10;;
24216;SDS011;12356;49.386;8.688;2023-02-26T07:05:51;5.75;;;2.30;;
24216;SDS011;12356;49.386;8.688;2023-02-26T07:08:22;5.15;;;2.15;;
24216;SDS011;12356;49.386;8.688;2023-02-26T07:10:53;4.95;;;2.50;;
24216;SDS011;12356;49.386;8.688;2023-02-26T07:13:23;6.13;;;2.30;;
24216;SDS011;12356;49.386;8.688;2023-02-26T07:15:54;8.65;;;2.42;;
24216;SDS011;12356;49.386;8.688;2023-02-26T07:18:24;6.07;;;2.00;;
24216;SDS011;12356;49.386;8.688;2023-02-26T07:20:55;5.05;;;2.40;;
24216;SDS011;12356;49.386;8.688;2023-02-26T07:23:25;6.10;;;2.22;;
24216;SDS011;12356;49.386;8.688;2023-02-26T07:25:56;5.13;;;2.35;;
24216;SDS011;12356;49.386;8.688;2023-02-26T07:28:26;5.65;;;2.50;;
24216;SDS011;12356;49.386;8.688;2023-02-26T07:30:57;5.88;;;2.50;;
24216;SDS011;12356;49.386;8.688;2023-02-26T07:33:28;7.03;;;2.35;;
24216;SDS011;12356;49.386;8.688;2023-02-26T07:36:00;4.72;;;2.33;;
24216;SDS011;12356;49.386;8.688;2023-02-26T07:38:31;7.90;;;2.53;;
24216;SDS011;12356;49.386;8.688;2023-02-26T07:41:01;10.07;;;3.50;;
24216;SDS011;12356;49.386;8.688;2023-02-26T07:43:32;7.40;;;3.03;;
24216;SDS011;12356;49.386;8.688;2023-02-26T07:46:03;6.85;;;2.83;;
24216;SDS011;12356;49.386;8.688;2023-02-26T07:48:33;7.68;;;3.38;;
24216;SDS011;12356;49.386;8.688;2023-02-26T07:51:06;6.80;;;2.42;;
24216;SDS011;12356;49.386;8.688;2023-02-26T07:53:36;6.47;;;2.50;;
24216;SDS011;12356;49.386;8.688;2023-02-26T07:56:07;8.93;;;3.50;;
24216;SDS011;12356;49.386;8.688;2023-02-26T07:58:38;9.57;;;4.50;;
24216;SDS011;12356;49.386;8.688;2023-02-26T08:01:09;11.18;;;5.18;;
24216;SDS011;12356;49.386;8.688;2023-02-26T08:03:39;7.63;;;3.83;;
24216;SDS011;12356;49.386;8.688;2023-02-26T08:06:10;7.05;;;2.30;;
24216;SDS011;12356;49.386;8.688;2023-02-26T08:08:40;4.32;;;2.00;;
24216;SDS011;12356;49.386;8.688;2023-02-26T08:11:12;6.35;;;2.60;;
24216;SDS011;12356;49.386;8.688;2023-02-26T08:13:42;6.93;;;2.03;;
24216;SDS011;12356;49.386;8.688;2023-02-26T08:16:13;6.97;;;2.20;;
24216;SDS011;12356;49.386;8.688;2023-02-26T08:18:43;4.88;;;1.98;;
24216;SDS011;12356;49.386;8.688;2023-02-26T08:21:14;4.93;;;1.83;;
24216;SDS011;12356;49.386;8.688;2023-02-26T08:23:45;5.38;;;2.63;;
24216;SDS011;12356;49.386;8.688;2023-02-26T08:26:15;5.05;;;2.22;;
24216;SDS011;12356;49.386;8.688;2023-02-26T08:28:46;4.60;;;2.00;;
24216;SDS011;12356;49.386;8.688;2023-02-26T08:31:17;8.50;;;3.88;;
24216;SDS011;12356;49.386;8.688;2023-02-26T08:33:47;6.30;;;3.30;;
24216;SDS011;12356;49.386;8.688;2023-02-26T08:36:18;4.43;;;1.90;;
24216;SDS011;12356;49.386;8.688;2023-02-26T08:38:51;5.32;;;2.22;;
24216;SDS011;12356;49.386;8.688;2023-02-26T08:41:21;4.53;;;1.75;;
24216;SDS011;12356;49.386;8.688;2023-02-26T08:43:52;5.85;;;2.00;;
24216;SDS011;12356;49.386;8.688;2023-02-26T08:46:23;5.00;;;1.95;;
24216;SDS011;12356;49.386;8.688;2023-02-26T08:48:53;5.13;;;1.63;;
24216;SDS011;12356;49.386;8.688;2023-02-26T08:51:24;5.07;;;2.13;;
24216;SDS011;12356;49.386;8.688;2023-02-26T08:53:55;6.82;;;1.83;;
24216;SDS011;12356;49.386;8.688;2023-02-26T08:56:25;6.28;;;1.70;;
24216;SDS011;12356;49.386;8.688;2023-02-26T08:58:56;2.67;;;1.52;;
24216;SDS011;12356;49.386;8.688;2023-02-26T09:01:26;3.67;;;1.70;;
24216;SDS011;12356;49.386;8.688;2023-02-26T09:03:57;2.70;;;1.63;;
24216;SDS011;12356;49.386;8.688;2023-02-26T09:06:27;6.00;;;2.97;;
24216;SDS011;12356;49.386;8.688;2023-02-26T09:08:58;3.63;;;1.88;;
24216;SDS011;12356;49.386;8.688;2023-02-26T09:11:28;3.92;;;1.60;;
24216;SDS011;12356;49.386;8.688;2023-02-26T09:13:59;3.30;;;1.60;;
24216;SDS011;12356;49.386;8.688;2023-02-26T09:16:32;3.45;;;1.77;;
24216;SDS011;12356;49.386;8.688;2023-02-26T09:19:05;4.47;;;1.77;;
24216;SDS011;12356;49.386;8.688;2023-02-26T09:21:36;4.95;;;1.90;;
24216;SDS011;12356;49.386;8.688;2023-02-26T09:24:07;3.08;;;1.55;;
24216;SDS011;12356;49.386;8.688;2023-02-26T09:26:37;4.70;;;1.50;;
24216;SDS011;12356;49.386;8.688;2023-02-26T09:29:08;4.57;;;2.03;;
24216;SDS011;12356;49.386;8.688;2023-02-26T09:31:40;4.95;;;1.90;;
24216;SDS011;12356;49.386;8.688;2023-02-26T09:34:10;5.53;;;2.42;;
24216;SDS011;12356;49.386;8.688;2023-02-26T09:36:42;4.07;;;1.70;;
24216;SDS011;12356;49.386;8.688;2023-02-26T09:39:13;3.45;;;1.60;;
24216;SDS011;12356;49.386;8.688;2023-02-26T09:41:51;4.82;;;2.58;;
24216;SDS011;12356;49.386;8.688;2023-02-26T09:44:26;4.03;;;1.73;;
24216;SDS011;12356;49.386;8.688;2023-02-26T09:49:52;4.07;;;1.95;;
24216;SDS011;12356;49.386;8.688;2023-02-26T09:52:37;4.38;;;1.70;;
24216;SDS011;12356;49.386;8.688;2023-02-26T09:55:29;3.70;;;1.50;;
24216;SDS011;12356;49.386;8.688;2023-02-26T09:58:20;3.50;;;1.50;;
24216;SDS011;12356;49.386;8.688;2023-02-26T10:00:57;7.22;;;3.17;;
24216;SDS011;12356;49.386;8.688;2023-02-26T10:06:48;5.47;;;1.90;;
24216;SDS011;12356;49.386;8.688;2023-02-26T10:09:41;2.95;;;1.55;;
24216;SDS011;12356;49.386;8.688;2023-02-26T10:12:32;6.93;;;2.90;;
24216;SDS011;12356;49.386;8.688;2023-02-26T10:17:52;8.30;;;3.05;;
24216;SDS011;12356;49.386;8.688;2023-02-26T10:26:15;2.65;;;1.30;;
24216;SDS011;12356;49.386;8.688;2023-02-26T10:29:02;3.75;;;1.20;;
24216;SDS011;12356;49.386;8.688;2023-02-26T10:37:42;4.63;;;2.33;;
24216;SDS011;12356;49.386;8.688;2023-02-26T10:40:36;1.75;;;1.10;;
24216;SDS011;12356;49.386;8.688;2023-02-26T10:46:15;1.65;;;1.13;;
24216;SDS011;12356;49.386;8.688;2023-02-26T10:52:00;4.00;;;2.25;;
24216;SDS011;12356;49.386;8.688;2023-02-26T10:54:48;2.33;;;1.13;;
24216;SDS011;12356;49.386;8.688;2023-02-26T10:57:43;1.05;;;0.82;;
24216;SDS011;12356;49.386;8.688;2023-02-26T11:00:21;2.95;;;1.08;;
24216;SDS011;12356;49.386;8.688;2023-02-26T11:02:52;3.00;;;0.82;;
24216;SDS011;12356;49.386;8.688;2023-02-26T11:05:25;3.63;;;1.02;;
24216;SDS011;12356;49.386;8.688;2023-02-26T11:08:02;1.73;;;0.70;;
24216;SDS011;12356;49.386;8.688;2023-02-26T11:10:44;1.40;;;0.80;;
24216;SDS011;12356;49.386;8.688;2023-02-26T11:13:23;3.28;;;0.93;;
24216;SDS011;12356;49.386;8.688;2023-02-26T11:15:56;1.35;;;0.90;;
24216;SDS011;12356;49.386;8.688;2023-02-26T11:18:37;4.05;;;1.38;;
24216;SDS011;12356;49.386;8.688;2023-02-26T11:21:16;1.23;;;0.90;;
24216;SDS011;12356;49.386;8.688;2023-02-26T11:23:53;3.20;;;0.90;;
24216;SDS011;12356;49.386;8.688;2023-02-26T11:26:31;2.58;;;0.90;;
24216;SDS011;12356;49.386;8.688;2023-02-26T11:29:04;7.72;;;4.28;;
24216;SDS011;12356;49.386;8.688;2023-02-26T11:31:35;1.35;;;0.88;;
24216;SDS011;12356;49.386;8.688;2023-02-26T11:34:09;2.55;;;0.70;;
24216;SDS011;12356;49.386;8.688;2023-02-26T11:36:41;2.05;;;0.70;;
24216;SDS011;12356;49.386;8.688;2023-02-26T11:39:14;3.38;;;0.70;;
24216;SDS011;12356;49.386;8.688;2023-02-26T11:41:48;0.95;;;0.60;;
24216;SDS011;12356;49.386;8.688;2023-02-26T11:47:13;1.90;;;0.85;;
24216;SDS011;12356;49.386;8.688;2023-02-26T11:49:50;0.82;;;0.65;;
24216;SDS011;12356;49.386;8.688;2023-02-26T11:55:00;0.95;;;0.52;;
24216;SDS011;12356;49.386;8.688;2023-02-26T11:57:32;0.85;;;0.50;;
24216;SDS011;12356;49.386;8.688;2023-02-26T12:00:11;1.05;;;0.50;;
24216;SDS011;12356;49.386;8.688;2023-02-26T12:03:03;0.80;;;0.50;;
24216;SDS011;12356;49.386;8.688;2023-02-26T12:05:44;0.88;;;0.60;;
24216;SDS011;12356;49.386;8.688;2023-02-26T12:08:24;0.50;;;0.50;;
24216;SDS011;12356;49.386;8.688;2023-02-26T12:11:05;0.85;;;0.40;;
24216;SDS011;12356;49.386;8.688;2023-02-26T12:14:09;1.25;;;0.82;;
24216;SDS011;12356;49.386;8.688;2023-02-26T12:22:07;0.43;;;0.40;;
24216;SDS011;12356;49.386;8.688;2023-02-26T12:24:53;1.05;;;0.60;;
24216;SDS011;12356;49.386;8.688;2023-02-26T12:27:53;0.95;;;0.47;;
24216;SDS011;12356;49.386;8.688;2023-02-26T12:45:12;3.13;;;0.50;;
24216;SDS011;12356;49.386;8.688;2023-02-26T12:51:16;1.15;;;0.60;;
24216;SDS011;12356;49.386;8.688;2023-02-26T12:59:28;3.33;;;0.55;;
24216;SDS011;12356;49.386;8.688;2023-02-26T13:05:38;1.80;;;0.70;;
24216;SDS011;12356;49.386;8.688;2023-02-26T13:08:38;0.68;;;0.52;;
24216;SDS011;12356;49.386;8.688;2023-02-26T13:11:23;2.25;;;0.68;;
24216;SDS011;12356;49.386;8.688;2023-02-26T13:17:10;1.30;;;0.60;;
24216;SDS011;12356;49.386;8.688;2023-02-26T13:20:00;0.90;;;0.63;;
24216;SDS011;12356;49.386;8.688;2023-02-26T13:22:41;0.93;;;0.50;;
24216;SDS011;12356;49.386;8.688;2023-02-26T13:28:21;2.05;;;0.60;;
24216;SDS011;12356;49.386;8.688;2023-02-26T13:30:56;2.47;;;0.52;;
24216;SDS011;12356;49.386;8.688;2023-02-26T13:33:29;0.98;;;0.47;;
24216;SDS011;12356;49.386;8.688;2023-02-26T13:36:02;0.80;;;0.50;;
24216;SDS011;12356;49.386;8.688;2023-02-26T13:41:43;0.50;;;0.50;;
24216;SDS011;12356;49.386;8.688;2023-02-26T13:44:31;1.08;;;0.50;;
24216;SDS011;12356;49.386;8.688;2023-02-26T13:50:13;0.93;;;0.50;;
24216;SDS011;12356;49.386;8.688;2023-02-26T13:53:28;0.73;;;0.50;;
24216;SDS011;12356;49.386;8.688;2023-02-26T13:56:17;0.60;;;0.50;;
24216;SDS011;12356;49.386;8.688;2023-02-26T14:04:29;1.17;;;0.60;;
24216;SDS011;12356;49.386;8.688;2023-02-26T14:07:10;0.55;;;0.50;;
24216;SDS011;12356;49.386;8.688;2023-02-26T14:15:17;0.90;;;0.50;;
24216;SDS011;12356;49.386;8.688;2023-02-26T14:17:47;1.08;;;0.60;;
24216;SDS011;12356;49.386;8.688;2023-02-26T14:20:24;0.90;;;0.55;;
24216;SDS011;12356;49.386;8.688;2023-02-26T14:25:48;0.82;;;0.55;;
24216;SDS011;12356;49.386;8.688;2023-02-26T14:33:38;0.63;;;0.50;;
24216;SDS011;12356;49.386;8.688;2023-02-26T14:39:12;0.55;;;0.40;;
24216;SDS011;12356;49.386;8.688;2023-02-26T14:42:22;0.80;;;0.50;;
24216;SDS011;12356;49.386;8.688;2023-02-26T14:45:09;0.65;;;0.60;;
24216;SDS011;12356;49.386;8.688;2023-02-26T14:47:46;0.77;;;0.50;;
24216;SDS011;12356;49.386;8.688;2023-02-26T14:53:04;1.15;;;0.68;;
24216;SDS011;12356;49.386;8.688;2023-02-26T15:01:56;0.93;;;0.50;;
24216;SDS011;12356;49.386;8.688;2023-02-26T15:07:23;1.90;;;0.60;;
24216;SDS011;12356;49.386;8.688;2023-02-26T15:18:53;0.43;;;0.40;;
24216;SDS011;12356;49.386;8.688;2023-02-26T15:21:53;2.55;;;0.80;;
24216;SDS011;12356;49.386;8.688;2023-02-26T15:24:29;1.58;;;0.55;;
24216;SDS011;12356;49.386;8.688;2023-02-26T15:27:00;2.20;;;0.77;;
24216;SDS011;12356;49.386;8.688;2023-02-26T15:29:34;0.75;;;0.63;;
24216;SDS011;12356;49.386;8.688;2023-02-26T15:35:00;0.82;;;0.50;;
24216;SDS011;12356;49.386;8.688;2023-02-26T15:37:36;0.60;;;0.50;;
24216;SDS011;12356;49.386;8.688;2023-02-26T15:40:08;1.17;;;0.47;;
24216;SDS011;12356;49.386;8.688;2023-02-26T15:42:39;1.65;;;0.70;;
24216;SDS011;12356;49.386;8.688;2023-02-26T15:45:21;3.00;;;0.85;;
24216;SDS011;12356;49.386;8.688;2023-02-26T15:47:58;1.42;;;0.60;;
24216;SDS011;12356;49.386;8.688;2023-02-26T15:50:32;1.63;;;0.60;;
24216;SDS011;12356;49.386;8.688;2023-02-26T15:53:06;0.63;;;0.50;;
24216;SDS011;12356;49.386;8.688;2023-02-26T15:55:43;1.65;;;0.50;;
24216;SDS011;12356;49.386;8.688;2023-02-26T15:58:39;1.38;;;0.60;;
24216;SDS011;12356;49.386;8.688;2023-02-26T16:01:18;2.30;;;1.20;;
24216;SDS011;12356;49.386;8.688;2023-02-26T16:03:52;1.70;;;0.55;;
24216;SDS011;12356;49.386;8.688;2023-02-26T16:06:36;2.30;;;1.30;;
24216;SDS011;12356;49.386;8.688;2023-02-26T16:09:17;1.30;;;0.70;;
24216;SDS011;12356;49.386;8.688;2023-02-26T16:12:01;2.90;;;0.60;;
24216;SDS011;12356;49.386;8.688;2023-02-26T16:14:37;1.63;;;0.65;;
24216;SDS011;12356;49.386;8.688;2023-02-26T16:17:11;1.80;;;0.73;;
24216;SDS011;12356;49.386;8.688;2023-02-26T16:19:51;0.85;;;0.60;;
24216;SDS011;12356;49.386;8.688;2023-02-26T16:22:26;2.30;;;0.93;;
24216;SDS011;12356;49.386;8.688;2023-02-26T16:25:14;0.90;;;0.65;;
24216;SDS011;12356;49.386;8.688;2023-02-26T16:27:56;0.43;;;0.40;;
24216;SDS011;12356;49.386;8.688;2023-02-26T16:30:33;1.00;;;0.45;;
24216;SDS011;12356;49.386;8.688;2023-02-26T16:33:09;2.42;;;1.13;;
24216;SDS011;12356;49.386;8.688;2023-02-26T16:35:46;1.52;;;0.75;;
24216;SDS011;12356;49.386;8.688;2023-02-26T16:38:30;1.30;;;0.60;;
24216;SDS011;12356;49.386;8.688;2023-02-26T16:41:07;1.25;;;0.90;;
24216;SDS011;12356;49.386;8.688;2023-02-26T16:46:14;1.92;;;0.70;;
24216;SDS011;12356;49.386;8.688;2023-02-26T16:51:24;4.40;;;1.40;;
24216;SDS011;12356;49.386;8.688;2023-02-26T16:53:59;1.75;;;0.75;;
24216;SDS011;12356;49.386;8.688;2023-02-26T16:56:37;1.42;;;0.88;;
24216;SDS011;12356;49.386;8.688;2023-02-26T16:59:12;1.83;;;0.70;;
24216;SDS011;12356;49.386;8.688;2023-02-26T17:01:53;1.20;;;0.70;;
24216;SDS011;12356;49.386;8.688;2023-02-26T17:04:33;2.30;;;0.70;;
24216;SDS011;12356;49.386;8.688;2023-02-26T17:07:13;3.83;;;1.60;;
24216;SDS011;12356;49.386;8.688;2023-02-26T17:09:49;1.58;;;0.75;;
24216;SDS011;12356;49.386;8.688;2023-02-26T17:12:22;1.40;;;0.68;;
24216;SDS011;12356;49.386;8.688;2023-02-26T17:14:59;3.38;;;0.70;;
24216;SDS011;12356;49.386;8.688;2023-02-26T17:17:30;0.80;;;0.50;;
24216;SDS011;12356;49.386;8.688;2023-02-26T17:20:01;0.77;;;0.60;;
24216;SDS011;12356;49.386;8.688;2023-02-26T17:22:31;2.30;;;0.73;;
24216;SDS011;12356;49.386;8.688;2023-02-26T17:25:02;0.93;;;0.77;;
24216;SDS011;12356;49.386;8.688;2023-02-26T17:27:33;2.70;;;0.90;;
24216;SDS011;12356;49.386;8.688;2023-02-26T17:30:05;1.35;;;0.50;;
24216;SDS011;12356;49.386;8.688;2023-02-26T17:32:38;1.30;;;0.60;;
24216;SDS011;12356;49.386;8.688;2023-02-26T17:35:13;0.93;;;0.50;;
24216;SDS011;12356;49.386;8.688;2023-02-26T17:37:45;1.20;;;0.65;;
24216;SDS011;12356;49.386;8.688;2023-02-26T17:40:23;0.80;;;0.60;;
24216;SDS011;12356;49.386;8.688;2023-02-26T17:43:00;1.70;;;0.70;;
24216;SDS011;12356;49.386;8.688;2023-02-26T17:45:33;0.63;;;0.50;;
24216;SDS011;12356;49.386;8.688;2023-02-26T17:48:05;2.38;;;0.80;;
24216;SDS011;12356;49.386;8.688;2023-02-26T17:50:52;1.33;;;0.50;;
24216;SDS011;12356;49.386;8.688;2023-02-26T17:53:24;1.70;;;0.60;;
24216;SDS011;12356;49.386;8.688;2023-02-26T17:56:03;0.90;;;0.70;;
24216;SDS011;12356;49.386;8.688;2023-02-26T18:01:06;1.83;;;0.60;;
24216;SDS011;12356;49.386;8.688;2023-02-26T18:03:37;1.17;;;0.70;;
24216;SDS011;12356;49.386;8.688;2023-02-26T18:06:10;2.58;;;0.80;;
24216;SDS011;12356;49.386;8.688;2023-02-26T18:08:43;0.88;;;0.50;;
24216;SDS011;12356;49.386;8.688;2023-02-26T18:11:16;1.33;;;0.60;;
24216;SDS011;12356;49.386;8.688;2023-02-26T18:13:46;1.13;;;0.63;;
24216;SDS011;12356;49.386;8.688;2023-02-26T18:16:18;1.95;;;0.68;;
24216;SDS011;12356;49.386;8.688;2023-02-26T18:18:51;1.67;;;0.60;;
24216;SDS011;12356;49.386;8.688;2023-02-26T18:21:23;1.27;;;0.50;;
24216;SDS011;12356;49.386;8.688;2023-02-26T18:23:54;1.27;;;0.85;;
24216;SDS011;12356;49.386;8.688;2023-02-26T18:26:26;1.33;;;0.70;;
24216;SDS011;12356;49.386;8.688;2023-02-26T18:29:00;1.92;;;0.68;;
24216;SDS011;12356;49.386;8.688;2023-02-26T18:31:31;1.55;;;0.63;;
24216;SDS011;12356;49.386;8.688;2023-02-26T18:34:02;2.33;;;0.80;;